createdAt,value
2023-05-23T00:01:32.872Z,59.10
2023-05-23T00:06:30.141Z,59.63
2023-05-23T00:11:28.604Z,59.51
2023-05-23T00:16:25.306Z,59.02
2023-05-23T00:21:21.967Z,58.49
2023-05-23T00:26:19.288Z,58.33
2023-05-23T00:31:18.317Z,57.20
2023-05-23T00:36:15.111Z,56.17
2023-05-23T00:41:11.824Z,55.97
2023-05-23T00:46:10.498Z,56.33
2023-05-23T00:51:10.030Z,57.02
2023-05-23T00:56:06.861Z,59.38
2023-05-23T01:01:03.555Z,58.83
2023-05-23T01:06:02.003Z,58.48
2023-05-23T01:11:01.910Z,57.88
2023-05-23T01:16:02.777Z,60.64
2023-05-23T01:21:03.433Z,61.89
2023-05-23T01:26:18.255Z,62.89
2023-05-23T01:31:16.436Z,63.19
2023-05-23T01:36:14.341Z,62.41
2023-05-23T01:41:13.735Z,63.52
2023-05-23T01:46:10.962Z,65.37
2023-05-23T01:51:08.429Z,64.29
2023-05-23T01:56:05.221Z,63.49
2023-05-23T02:01:02.077Z,62.84
2023-05-23T02:06:00.753Z,63.47
2023-05-23T02:10:58.086Z,63.17
2023-05-23T02:15:54.685Z,62.56
2023-05-23T02:20:51.526Z,64.25
2023-05-23T02:25:48.370Z,63.81
2023-05-23T02:30:45.990Z,63.40
2023-05-23T02:35:43.031Z,62.71
2023-05-23T02:40:40.129Z,62.18
2023-05-23T02:45:37.026Z,60.91
2023-05-23T02:50:36.437Z,61.11
2023-05-23T02:55:33.078Z,59.79
2023-05-23T03:00:30.047Z,61.64
2023-05-23T03:05:27.862Z,62.41
2023-05-23T03:10:25.113Z,64.64
2023-05-23T03:15:22.400Z,64.35
2023-05-23T03:20:21.467Z,68.21
2023-05-23T03:25:18.086Z,69.73
2023-05-23T03:30:15.386Z,69.74
2023-05-23T03:35:12.271Z,67.86
2023-05-23T03:40:09.428Z,67.71
2023-05-23T03:45:06.598Z,69.30
2023-05-23T03:50:05.142Z,72.23
2023-05-23T03:55:03.270Z,76.03
2023-05-23T04:00:00.013Z,76.49
2023-05-23T04:04:56.783Z,75.18
2023-05-23T04:09:54.465Z,75.05
2023-05-23T04:14:51.143Z,77.27
2023-05-23T04:19:48.446Z,76.30
2023-05-23T04:24:45.527Z,74.00
2023-05-23T04:29:43.697Z,74.26
2023-05-23T04:34:41.086Z,74.63
2023-05-23T04:39:37.961Z,74.68
2023-05-23T04:45:05.304Z,76.07
2023-05-23T04:50:22.310Z,76.19
2023-05-23T04:55:19.521Z,73.86
2023-05-23T05:00:17.608Z,73.43
2023-05-23T05:05:15.498Z,73.95
2023-05-23T05:10:16.232Z,74.36
2023-05-23T05:15:13.558Z,75.38
2023-05-23T05:20:13.394Z,76.08
2023-05-23T05:25:11.254Z,76.03
2023-05-23T05:30:10.409Z,75.54
2023-05-23T05:35:29.679Z,76.31
2023-05-23T05:40:26.611Z,77.59
2023-05-23T05:45:23.521Z,78.69
2023-05-23T05:50:20.658Z,76.20
2023-05-23T05:55:18.606Z,73.11
2023-05-23T06:00:21.521Z,73.14
2023-05-23T06:05:26.164Z,72.42
2023-05-23T06:10:24.091Z,70.77
2023-05-23T06:15:21.433Z,69.53
2023-05-23T06:20:18.293Z,67.98
2023-05-23T06:25:17.089Z,67.02
2023-05-23T06:30:17.470Z,65.25
2023-05-23T06:35:18.994Z,63.33
2023-05-23T06:40:15.837Z,63.03
2023-05-23T06:45:14.926Z,63.14
2023-05-23T06:50:14.338Z,62.83
2023-05-23T06:55:15.162Z,62.03
2023-05-23T07:00:13.592Z,61.32
2023-05-23T07:05:29.784Z,61.23
2023-05-23T07:10:27.931Z,60.40
2023-05-23T07:15:39.870Z,58.66
2023-05-23T07:20:42.124Z,57.56
2023-05-23T07:26:00.607Z,57.57
2023-05-23T07:31:09.707Z,58.07
2023-05-23T07:36:08.728Z,57.96
2023-05-23T07:41:11.456Z,58.61
2023-05-23T07:46:09.342Z,57.32
2023-05-23T07:51:08.391Z,56.71
2023-05-23T07:56:05.440Z,56.14
2023-05-23T08:01:07.701Z,55.63
2023-05-23T08:06:25.809Z,54.09
2023-05-23T08:11:23.689Z,53.97
2023-05-23T08:16:24.066Z,53.52
2023-05-23T08:21:21.377Z,53.43
2023-05-23T08:26:20.068Z,52.82
2023-05-23T08:31:18.035Z,52.59
2023-05-23T08:36:15.071Z,51.23
2023-05-23T08:41:18.523Z,51.17
2023-05-23T08:46:17.402Z,51.64
2023-05-23T08:51:14.615Z,50.41
2023-05-23T08:56:12.057Z,50.56
2023-05-23T09:01:13.459Z,50.91
2023-05-23T09:06:16.075Z,50.97
2023-05-23T09:11:13.660Z,49.33
2023-05-23T09:16:12.195Z,49.44
2023-05-23T09:21:17.390Z,49.43
2023-05-23T09:26:29.627Z,48.95
2023-05-23T09:31:27.657Z,48.37
2023-05-23T09:36:28.792Z,46.78
2023-05-23T09:41:26.053Z,47.00
2023-05-23T09:46:23.437Z,46.66
2023-05-23T09:51:29.634Z,47.96
2023-05-23T09:56:29.873Z,48.37
2023-05-23T10:01:27.493Z,48.32
2023-05-23T10:06:27.319Z,47.29
2023-05-23T10:11:48.329Z,46.84
2023-05-23T10:16:55.963Z,45.68
2023-05-23T10:21:59.310Z,44.91
2023-05-23T10:26:56.355Z,44.44
2023-05-23T10:31:56.157Z,44.15
2023-05-23T10:36:59.553Z,43.88
2023-05-23T10:41:58.997Z,43.22
2023-05-23T10:46:58.481Z,42.47
2023-05-23T10:51:55.476Z,42.88
2023-05-23T10:57:02.825Z,41.07
2023-05-23T11:02:01.383Z,41.90
2023-05-23T11:06:58.571Z,41.76
2023-05-23T11:12:03.090Z,40.91
2023-05-23T11:17:01.177Z,41.01
2023-05-23T11:21:59.043Z,40.88
2023-05-23T11:27:02.241Z,40.51
2023-05-23T11:31:59.275Z,40.00
2023-05-23T11:36:56.791Z,39.43
2023-05-23T11:42:01.500Z,39.13
2023-05-23T11:47:02.125Z,38.89
2023-05-23T11:51:59.650Z,38.11
2023-05-23T11:56:57.510Z,37.89
2023-05-23T12:01:54.763Z,38.72
2023-05-23T12:06:52.249Z,36.14
2023-05-23T12:11:49.866Z,35.83
2023-05-23T12:16:47.355Z,35.86
2023-05-23T12:21:45.347Z,35.03
2023-05-23T12:26:52.973Z,37.00
2023-05-23T12:31:50.813Z,37.54
2023-05-23T12:36:50.738Z,37.38
2023-05-23T12:41:50.356Z,36.81
2023-05-23T12:47:06.130Z,36.83
2023-05-23T12:52:08.914Z,35.75
2023-05-23T12:57:07.129Z,35.56
2023-05-23T13:02:08.597Z,35.22
2023-05-23T13:07:08.332Z,34.71
2023-05-23T13:12:05.633Z,35.74
2023-05-23T13:17:13.813Z,34.69
2023-05-23T13:22:11.648Z,34.63
2023-05-23T13:27:11.719Z,34.23
2023-05-23T13:32:08.993Z,32.18
2023-05-23T13:37:06.175Z,34.43
2023-05-23T13:42:04.066Z,34.08
2023-05-23T13:47:12.674Z,33.91
2023-05-23T13:52:10.204Z,33.77
2023-05-23T13:57:15.774Z,32.96
2023-05-23T14:02:12.966Z,33.02
2023-05-23T14:07:11.707Z,32.60
2023-05-23T14:12:09.408Z,33.67
2023-05-23T14:17:06.750Z,34.59
2023-05-23T14:22:03.660Z,33.11
2023-05-23T14:27:01.990Z,32.67
2023-05-23T14:32:00.293Z,32.34
2023-05-23T14:36:57.371Z,32.27
2023-05-23T14:41:55.408Z,32.75
2023-05-23T14:46:52.576Z,32.11
2023-05-23T14:51:51.588Z,32.76
2023-05-23T14:56:51.149Z,33.79
2023-05-23T15:01:49.718Z,33.42
2023-05-23T15:06:46.725Z,33.47
2023-05-23T15:11:45.451Z,33.56
2023-05-23T15:16:44.137Z,33.93
2023-05-23T15:21:49.877Z,34.87
2023-05-23T15:26:50.426Z,34.64
2023-05-23T15:31:47.272Z,35.62
2023-05-23T15:36:47.464Z,35.34
2023-05-23T15:41:47.185Z,35.84
2023-05-23T15:46:44.784Z,36.43
2023-05-23T15:51:41.590Z,38.56
2023-05-23T15:56:38.435Z,39.73
2023-05-23T16:01:35.038Z,40.82
2023-05-23T16:06:34.536Z,42.83
2023-05-23T16:11:31.404Z,41.46
2023-05-23T16:16:28.141Z,41.58
2023-05-23T16:21:26.042Z,42.35
2023-05-23T16:26:25.957Z,43.50
2023-05-23T16:31:25.797Z,43.87
2023-05-23T16:36:23.014Z,43.96
2023-05-23T16:41:20.011Z,44.43
2023-05-23T16:46:19.724Z,44.44
2023-05-23T16:51:17.530Z,45.01
2023-05-23T16:56:14.589Z,44.33
2023-05-23T17:01:14.194Z,44.68
2023-05-23T17:06:11.577Z,44.74
2023-05-23T17:11:10.371Z,44.20
2023-05-23T17:16:07.270Z,44.62
2023-05-23T17:21:04.177Z,44.59
2023-05-23T17:26:01.889Z,44.28
2023-05-23T17:30:58.788Z,44.10
2023-05-23T17:35:55.756Z,43.83
2023-05-23T17:40:53.007Z,44.39
2023-05-23T17:45:50.608Z,44.63
2023-05-23T17:50:47.350Z,44.38
2023-05-23T17:55:44.584Z,44.44
2023-05-23T18:00:41.554Z,44.78
2023-05-23T18:05:38.920Z,44.86
2023-05-23T18:10:35.766Z,45.08
2023-05-23T18:15:32.616Z,45.12
2023-05-23T18:20:29.604Z,44.83
2023-05-23T18:25:27.606Z,45.46
2023-05-23T18:30:24.771Z,45.52
2023-05-23T18:35:21.823Z,45.58
2023-05-23T18:40:24.492Z,46.12
2023-05-23T18:45:22.046Z,46.47
2023-05-23T18:50:20.231Z,47.19
2023-05-23T18:55:17.116Z,46.86
2023-05-23T19:00:14.465Z,47.27
2023-05-23T19:05:12.146Z,47.89
2023-05-23T19:10:09.188Z,47.75
2023-05-23T19:15:09.916Z,47.42
2023-05-23T19:20:07.804Z,47.73
2023-05-23T19:25:07.305Z,47.64
2023-05-23T19:30:04.425Z,51.47
2023-05-23T19:35:01.069Z,53.07
2023-05-23T19:39:58.302Z,53.75
2023-05-23T19:44:55.745Z,53.37
2023-05-23T19:49:52.730Z,52.86
2023-05-23T19:54:49.649Z,52.07
2023-05-23T19:59:46.512Z,51.41
2023-05-23T20:04:44.276Z,52.00
2023-05-23T20:09:40.858Z,53.42
2023-05-23T20:14:37.498Z,53.44
2023-05-23T20:19:34.418Z,52.58
2023-05-23T20:24:32.672Z,51.71
2023-05-23T20:29:29.530Z,51.99
2023-05-23T20:34:26.804Z,52.96
2023-05-23T20:39:23.872Z,53.32
2023-05-23T20:44:21.094Z,51.50
2023-05-23T20:49:19.901Z,51.92
2023-05-23T20:54:16.699Z,51.68
2023-05-23T20:59:13.326Z,50.99
2023-05-23T21:04:10.677Z,50.20
2023-05-23T21:09:09.149Z,49.34
2023-05-23T21:14:05.800Z,48.94
2023-05-23T21:19:02.865Z,49.42
2023-05-23T21:24:00.179Z,49.36
2023-05-23T21:28:56.747Z,51.61
2023-05-23T21:33:53.426Z,52.83
2023-05-23T21:38:50.194Z,53.19
2023-05-23T21:43:47.386Z,53.59
2023-05-23T21:48:46.458Z,53.38
2023-05-23T21:53:45.703Z,53.52
2023-05-23T21:58:42.388Z,53.45
2023-05-23T22:03:39.794Z,53.23
2023-05-23T22:08:36.458Z,52.20
2023-05-23T22:13:33.228Z,52.45
2023-05-23T22:18:34.594Z,52.86
2023-05-23T22:23:41.112Z,52.74
2023-05-23T22:28:37.849Z,51.09
2023-05-23T22:33:34.383Z,49.46
2023-05-23T22:38:31.936Z,49.19
2023-05-23T22:43:29.318Z,49.36
2023-05-23T22:48:26.049Z,51.38
2023-05-23T22:53:22.890Z,53.28
2023-05-23T22:58:19.537Z,53.15
2023-05-23T23:03:17.005Z,53.80
2023-05-23T23:08:15.606Z,54.80
2023-05-23T23:13:13.025Z,54.76
2023-05-23T23:18:12.824Z,54.90
2023-05-23T23:23:10.416Z,54.38
2023-05-23T23:28:07.257Z,53.50
2023-05-23T23:33:03.935Z,54.90
2023-05-23T23:38:00.766Z,55.73
2023-05-23T23:42:58.053Z,56.02
2023-05-23T23:47:54.659Z,55.78
2023-05-23T23:52:51.451Z,55.15
2023-05-23T23:57:48.122Z,55.22
